createdAt,value
2018-03-15T00:00:57.458Z,100307.72
2018-03-15T00:03:29.612Z,100308.14
2018-03-15T00:05:55.661Z,100302.08
2018-03-15T00:08:21.694Z,100299.53
2018-03-15T00:10:48.058Z,100304.22
2018-03-15T00:13:14.143Z,100299.52
2018-03-15T00:15:40.245Z,100286.98
2018-03-15T00:18:06.311Z,100287.01
2018-03-15T00:20:32.348Z,100283.14
2018-03-15T00:22:58.414Z,100280.95
2018-03-15T00:25:24.499Z,100272.77
2018-03-15T00:27:50.535Z,100274.93
2018-03-15T00:30:16.610Z,100270.19
2018-03-15T00:32:43.172Z,100272.75
2018-03-15T00:35:09.229Z,100268.89
2018-03-15T00:37:35.329Z,100274.06
2018-03-15T00:40:01.568Z,100279.23
2018-03-15T00:42:27.621Z,100276.24
2018-03-15T00:44:53.722Z,100284.42
2018-03-15T00:47:19.776Z,100281.86
2018-03-15T00:49:45.818Z,100280.13
2018-03-15T00:52:11.883Z,100283.59
2018-03-15T00:54:37.930Z,100283.17
2018-03-15T00:57:03.947Z,100284.02
2018-03-15T00:59:30.223Z,100281.87
2018-03-15T01:01:56.279Z,100275.83
2018-03-15T01:04:22.345Z,100266.31
2018-03-15T01:06:48.430Z,100269.78
2018-03-15T01:09:14.499Z,100261.16
2018-03-15T01:11:40.562Z,100261.16
2018-03-15T01:14:06.730Z,100258.58
2018-03-15T01:16:33.101Z,100251.66
2018-03-15T01:18:59.200Z,100254.66
2018-03-15T01:21:25.228Z,100255.51
2018-03-15T01:23:51.269Z,100249.91
2018-03-15T01:26:17.306Z,100245.13
2018-03-15T01:28:43.373Z,100230.44
2018-03-15T01:31:09.470Z,100226.11
2018-03-15T01:33:35.568Z,100214.04
2018-03-15T01:36:01.605Z,100215.31
2018-03-15T01:38:27.868Z,100213.16
2018-03-15T01:40:53.930Z,100201.91
2018-03-15T01:43:19.948Z,100207.52
2018-03-15T01:45:45.988Z,100202.81
2018-03-15T01:48:12.019Z,100204.53
2018-03-15T01:50:38.095Z,100199.81
2018-03-15T01:53:04.133Z,100196.77
2018-03-15T01:55:30.151Z,100196.80
2018-03-15T01:57:56.236Z,100190.33
2018-03-15T02:00:22.291Z,100183.86
2018-03-15T02:02:48.397Z,100176.51
2018-03-15T02:05:14.430Z,100174.80
2018-03-15T02:07:40.488Z,100170.91
2018-03-15T02:10:06.554Z,100171.31
2018-03-15T02:12:32.680Z,100167.88
2018-03-15T02:14:58.779Z,100166.56
2018-03-15T02:17:24.789Z,100171.78
2018-03-15T02:19:50.951Z,100168.34
2018-03-15T02:22:16.999Z,100164.89
2018-03-15T02:24:43.052Z,100161.42
2018-03-15T02:27:09.292Z,100163.53
2018-03-15T02:29:35.724Z,100169.13
2018-03-15T02:32:01.947Z,100169.16
2018-03-15T02:34:27.982Z,100157.47
2018-03-15T02:36:54.038Z,100160.89
2018-03-15T02:39:20.113Z,100157.84
2018-03-15T02:41:46.189Z,100153.52
2018-03-15T02:44:12.207Z,100150.06
2018-03-15T02:46:38.328Z,100154.80
2018-03-15T02:49:04.350Z,100147.05
2018-03-15T02:51:30.725Z,100143.58
2018-03-15T02:53:56.764Z,100141.45
2018-03-15T02:56:22.787Z,100139.30
2018-03-15T02:58:48.957Z,100131.13
2018-03-15T03:01:15.009Z,100135.87
2018-03-15T03:03:41.068Z,100142.33
2018-03-15T03:06:07.150Z,100129.42
2018-03-15T03:08:33.212Z,100133.73
2018-03-15T03:10:59.276Z,100139.79
2018-03-15T03:13:25.479Z,100133.33
2018-03-15T03:15:51.501Z,100130.28
2018-03-15T03:18:17.714Z,100138.94
2018-03-15T03:20:43.770Z,100122.14
2018-03-15T03:23:09.804Z,100127.30
2018-03-15T03:25:36.000Z,100123.02
2018-03-15T03:28:02.067Z,100123.91
2018-03-15T03:30:28.162Z,100122.61
2018-03-15T03:32:54.206Z,100127.39
2018-03-15T03:35:20.294Z,100127.38
2018-03-15T03:37:46.345Z,100120.91
2018-03-15T03:40:12.461Z,100120.06
2018-03-15T03:42:38.490Z,100123.51
2018-03-15T03:45:04.644Z,100125.64
2018-03-15T03:47:30.683Z,100126.09
2018-03-15T03:49:56.698Z,100118.77
2018-03-15T03:52:22.862Z,100127.38
2018-03-15T03:54:48.899Z,100125.64
2018-03-15T03:57:14.984Z,100123.92
2018-03-15T03:59:41.002Z,100124.36
2018-03-15T04:02:07.055Z,100136.45
2018-03-15T04:04:33.163Z,100128.25
2018-03-15T04:06:59.209Z,100133.91
2018-03-15T04:09:25.252Z,100135.59
2018-03-15T04:11:51.437Z,100139.95
2018-03-15T04:14:17.470Z,100132.16
2018-03-15T04:16:43.687Z,100136.89
2018-03-15T04:19:09.871Z,100136.00
2018-03-15T04:21:36.008Z,100141.65
2018-03-15T04:24:02.029Z,100142.95
2018-03-15T04:26:28.095Z,100149.88
2018-03-15T04:28:54.174Z,100141.64
2018-03-15T04:31:20.595Z,100139.94
2018-03-15T04:33:46.644Z,100146.84
2018-03-15T04:36:12.744Z,100149.47
2018-03-15T04:38:38.790Z,100143.44
2018-03-15T04:41:04.910Z,100151.22
2018-03-15T04:43:30.997Z,100147.74
2018-03-15T04:45:57.041Z,100143.45
2018-03-15T04:48:23.130Z,100146.92
2018-03-15T04:50:49.212Z,100136.56
2018-03-15T04:53:15.236Z,100134.85
2018-03-15T04:55:41.349Z,100136.14
2018-03-15T04:58:07.443Z,100140.87
2018-03-15T05:00:33.553Z,100144.80
2018-03-15T05:02:59.642Z,100134.45
2018-03-15T05:05:25.744Z,100139.19
2018-03-15T05:07:51.801Z,100127.12
2018-03-15T05:10:18.056Z,100132.73
2018-03-15T05:12:44.145Z,100128.84
2018-03-15T05:15:10.195Z,100137.00
2018-03-15T05:17:36.311Z,100134.88
2018-03-15T05:20:02.435Z,100128.37
2018-03-15T05:22:28.531Z,100120.62
2018-03-15T05:24:54.582Z,100122.75
2018-03-15T05:27:20.664Z,100121.93
2018-03-15T05:29:46.752Z,100122.77
2018-03-15T05:32:12.845Z,100127.96
2018-03-15T05:34:38.928Z,100134.46
2018-03-15T05:37:04.978Z,100133.98
2018-03-15T05:39:31.012Z,100140.50
2018-03-15T05:41:57.064Z,100131.00
2018-03-15T05:44:23.119Z,100122.80
2018-03-15T05:46:49.252Z,100132.30
2018-03-15T05:49:15.308Z,100130.14
2018-03-15T05:51:41.507Z,100130.55
2018-03-15T05:54:07.595Z,100126.25
2018-03-15T05:56:33.634Z,100131.41
2018-03-15T05:58:59.907Z,100121.45
2018-03-15T06:01:25.938Z,100119.77
2018-03-15T06:03:52.154Z,100122.31
2018-03-15T06:06:18.273Z,100134.38
2018-03-15T06:08:44.310Z,100130.91
2018-03-15T06:11:10.515Z,100124.42
2018-03-15T06:13:36.559Z,100126.55
2018-03-15T06:16:02.878Z,100129.11
2018-03-15T06:18:28.907Z,100126.94
2018-03-15T06:20:54.984Z,100126.94
2018-03-15T06:23:21.044Z,100123.06
2018-03-15T06:26:01.991Z,100126.08
2018-03-15T06:28:28.049Z,100125.18
2018-03-15T06:30:54.185Z,100129.08
2018-03-15T06:33:20.308Z,100133.34
2018-03-15T06:35:46.381Z,100130.30
2018-03-15T06:38:12.405Z,100138.02
2018-03-15T06:40:38.546Z,100139.32
2018-03-15T06:43:04.789Z,100138.46
2018-03-15T06:45:30.817Z,100150.53
2018-03-15T06:47:56.878Z,100144.88
2018-03-15T06:50:23.158Z,100140.51
2018-03-15T06:52:49.198Z,100136.20
2018-03-15T06:55:15.417Z,100130.56
2018-03-15T06:57:41.641Z,100124.96
2018-03-15T07:00:07.717Z,100128.86
2018-03-15T07:02:33.781Z,100121.03
2018-03-15T07:04:59.881Z,100121.02
2018-03-15T07:07:25.999Z,100113.22
2018-03-15T07:09:52.041Z,100117.56
2018-03-15T07:12:18.163Z,100103.71
2018-03-15T07:14:44.236Z,100104.11
2018-03-15T07:17:10.345Z,100106.23
2018-03-15T07:19:36.450Z,100103.59
2018-03-15T07:22:02.487Z,100099.69
2018-03-15T07:24:28.875Z,100102.30
2018-03-15T07:26:55.063Z,100097.92
2018-03-15T07:29:21.101Z,100100.87
2018-03-15T07:31:47.186Z,100099.06
2018-03-15T07:34:13.235Z,100093.00
2018-03-15T07:36:39.434Z,100089.11
2018-03-15T07:39:05.465Z,100079.10
2018-03-15T07:41:31.535Z,100082.08
2018-03-15T07:43:57.591Z,100072.50
2018-03-15T07:46:23.691Z,100072.84
2018-03-15T07:48:49.767Z,100072.32
2018-03-15T07:51:15.809Z,100069.73
2018-03-15T07:53:41.912Z,100060.64
2018-03-15T07:56:08.122Z,100057.09
2018-03-15T07:58:34.174Z,100058.39
2018-03-15T08:01:00.291Z,100051.03
2018-03-15T08:03:26.358Z,100041.41
2018-03-15T08:05:52.481Z,100037.88
2018-03-15T08:08:18.565Z,100031.91
2018-03-15T08:10:44.670Z,100037.52
2018-03-15T08:13:10.967Z,100027.81
2018-03-15T08:15:37.067Z,100033.75
2018-03-15T08:18:03.127Z,100026.83
2018-03-15T08:20:29.136Z,100019.47
2018-03-15T08:22:55.247Z,100019.33
2018-03-15T08:25:21.308Z,100005.82
2018-03-15T08:27:47.365Z,100011.45
2018-03-15T08:30:13.598Z,100003.55
2018-03-15T08:32:39.639Z,100004.40
2018-03-15T08:35:05.751Z,99993.95
2018-03-15T08:37:31.840Z,99980.51
2018-03-15T08:39:57.927Z,99986.08
2018-03-15T08:42:23.952Z,99975.54
2018-03-15T08:44:49.990Z,99973.70
2018-03-15T08:47:16.046Z,99977.02
2018-03-15T08:49:42.140Z,99965.14
2018-03-15T08:52:08.195Z,99965.53
2018-03-15T08:54:34.245Z,99968.17
2018-03-15T08:57:00.342Z,99970.73
2018-03-15T08:59:26.513Z,99965.89
2018-03-15T09:01:52.601Z,99960.63
2018-03-15T09:04:18.666Z,99953.53
2018-03-15T09:06:44.911Z,99954.44
2018-03-15T09:09:10.951Z,99957.88
2018-03-15T09:11:36.991Z,99963.32
2018-03-15T09:14:03.052Z,99963.99
2018-03-15T09:16:29.110Z,99958.11
2018-03-15T09:18:55.158Z,99961.05
2018-03-15T09:21:21.214Z,99961.89
2018-03-15T09:23:47.288Z,99969.74
2018-03-15T09:26:13.388Z,99962.34
2018-03-15T09:28:39.461Z,99959.56
2018-03-15T09:31:05.539Z,99945.47
2018-03-15T09:33:31.754Z,99936.22
2018-03-15T09:35:57.810Z,99939.13
2018-03-15T09:38:23.954Z,99928.55
2018-03-15T09:40:50.037Z,99942.34
2018-03-15T09:43:16.098Z,99943.88
2018-03-15T09:45:42.381Z,99937.92
2018-03-15T09:48:08.453Z,99933.41
2018-03-15T09:50:34.487Z,99936.80
2018-03-15T09:53:00.534Z,99930.57
2018-03-15T09:55:26.582Z,99927.70
2018-03-15T09:57:52.674Z,99921.62
2018-03-15T10:00:18.762Z,99914.89
2018-03-15T10:02:44.856Z,99925.72
2018-03-15T10:05:11.080Z,99923.11
2018-03-15T10:07:37.110Z,99912.41
2018-03-15T10:10:03.241Z,99920.23
2018-03-15T10:12:29.320Z,99910.19
2018-03-15T10:14:55.586Z,99923.72
2018-03-15T10:17:21.640Z,99901.23
2018-03-15T10:19:47.719Z,99898.02
2018-03-15T10:22:13.908Z,99890.83
2018-03-15T10:24:39.928Z,99896.65
2018-03-15T10:27:06.044Z,99914.73
2018-03-15T10:29:32.079Z,99896.08
2018-03-15T10:31:58.187Z,99900.26
2018-03-15T10:34:24.232Z,99899.45
2018-03-15T10:36:50.338Z,99903.27
2018-03-15T10:39:17.368Z,99896.89
2018-03-15T10:41:43.432Z,99903.57
2018-03-15T10:44:09.767Z,99903.00
2018-03-15T10:46:35.817Z,99893.80
2018-03-15T10:49:01.966Z,99888.13
2018-03-15T10:51:28.008Z,99879.29
2018-03-15T10:53:54.143Z,99875.92
2018-03-15T10:56:20.203Z,99868.20
2018-03-15T10:58:46.264Z,99868.56
2018-03-15T11:01:18.587Z,99863.14
2018-03-15T11:03:49.559Z,99860.52
2018-03-15T11:06:21.545Z,99863.45
2018-03-15T11:08:53.613Z,99860.66
2018-03-15T11:11:19.698Z,99854.80
2018-03-15T11:13:45.801Z,99843.52
2018-03-15T11:16:11.998Z,99850.95
2018-03-15T11:18:38.051Z,99842.22
2018-03-15T11:21:04.120Z,99835.16
2018-03-15T11:23:30.161Z,99839.73
2018-03-15T11:25:56.188Z,99838.36
2018-03-15T11:28:22.267Z,99837.07
2018-03-15T11:30:48.352Z,99830.85
2018-03-15T11:33:14.491Z,99827.02
2018-03-15T11:35:40.620Z,99833.95
2018-03-15T11:38:06.726Z,99829.76
2018-03-15T11:40:32.941Z,99829.40
2018-03-15T11:42:59.049Z,99822.05
2018-03-15T11:45:25.300Z,99824.44
2018-03-15T11:47:51.348Z,99814.06
2018-03-15T11:50:17.490Z,99816.13
2018-03-15T11:52:43.543Z,99809.58
2018-03-15T11:55:09.599Z,99810.55
2018-03-15T11:57:35.816Z,99793.48
2018-03-15T12:00:01.892Z,99791.35
2018-03-15T12:02:27.966Z,99792.37
2018-03-15T12:04:53.997Z,99779.36
2018-03-15T12:07:20.043Z,99773.04
2018-03-15T12:09:46.090Z,99760.19
2018-03-15T12:12:12.173Z,99755.52
2018-03-15T12:14:38.321Z,99737.91
2018-03-15T12:17:04.410Z,99739.44
2018-03-15T12:19:30.495Z,99730.88
2018-03-15T12:21:56.514Z,99727.55
2018-03-15T12:24:22.607Z,99733.16
2018-03-15T12:26:48.651Z,99712.89
2018-03-15T12:29:14.692Z,99706.79
2018-03-15T12:31:40.784Z,99697.96
2018-03-15T12:34:06.825Z,99692.08
2018-03-15T12:36:32.921Z,99694.13
2018-03-15T12:38:58.978Z,99678.73
2018-03-15T12:41:25.046Z,99693.63
2018-03-15T12:43:51.060Z,99682.48
2018-03-15T12:46:17.118Z,99680.95
2018-03-15T12:48:43.171Z,99676.05
2018-03-15T12:51:09.209Z,99691.76
2018-03-15T12:53:35.300Z,99679.70
2018-03-15T12:56:01.352Z,99679.40
2018-03-15T12:58:27.390Z,99685.83
2018-03-15T13:00:53.442Z,99674.03
2018-03-15T13:03:19.457Z,99683.98
2018-03-15T13:05:45.554Z,99666.37
2018-03-15T13:08:11.603Z,99664.74
2018-03-15T13:10:37.664Z,99679.73
2018-03-15T13:13:03.801Z,99670.23
2018-03-15T13:15:29.831Z,99670.27
2018-03-15T13:17:56.151Z,99662.92
2018-03-15T13:20:22.182Z,99671.94
2018-03-15T13:22:48.276Z,99667.00
2018-03-15T13:25:14.369Z,99669.72
2018-03-15T13:27:40.373Z,99661.48
2018-03-15T13:30:06.447Z,99658.68
2018-03-15T13:32:32.479Z,99674.08
2018-03-15T13:34:58.549Z,99660.56
2018-03-15T13:37:24.595Z,99662.80
2018-03-15T13:39:50.665Z,99660.33
2018-03-15T13:42:16.958Z,99661.78
2018-03-15T13:44:42.988Z,99672.28
2018-03-15T13:47:09.022Z,99669.61
2018-03-15T13:49:35.076Z,99675.63
2018-03-15T13:52:01.171Z,99674.36
2018-03-15T13:54:27.202Z,99681.98
2018-03-15T13:56:53.268Z,99675.11
2018-03-15T13:59:19.497Z,99680.39
2018-03-15T14:01:45.536Z,99677.08
2018-03-15T14:04:11.605Z,99672.42
2018-03-15T14:06:37.647Z,99680.58
2018-03-15T14:09:03.717Z,99681.70
2018-03-15T14:11:29.784Z,99676.96
2018-03-15T14:13:55.829Z,99662.23
2018-03-15T14:16:21.891Z,99663.95
2018-03-15T14:18:47.957Z,99661.91
2018-03-15T14:21:14.150Z,99665.73
2018-03-15T14:23:40.184Z,99668.44
2018-03-15T14:26:06.371Z,99651.88
2018-03-15T14:28:32.418Z,99646.28
2018-03-15T14:30:58.436Z,99641.02
2018-03-15T14:33:24.620Z,99645.41
2018-03-15T14:35:50.685Z,99630.51
2018-03-15T14:38:16.919Z,99634.17
2018-03-15T14:40:42.987Z,99629.91
2018-03-15T14:43:09.079Z,99630.00
2018-03-15T14:45:35.115Z,99626.75
2018-03-15T14:48:01.169Z,99629.35
2018-03-15T14:50:27.419Z,99626.45
2018-03-15T14:52:53.458Z,99628.53
2018-03-15T14:55:19.492Z,99627.70
2018-03-15T14:57:45.516Z,99630.97
2018-03-15T15:00:11.591Z,99622.36
2018-03-15T15:02:37.658Z,99620.58
2018-03-15T15:05:03.926Z,99620.06
2018-03-15T15:07:29.965Z,99618.89
2018-03-15T15:09:56.010Z,99610.97
2018-03-15T15:12:22.234Z,99620.28
2018-03-15T15:14:48.311Z,99631.77
2018-03-15T15:17:14.580Z,99637.91
2018-03-15T15:19:40.609Z,99633.47
2018-03-15T15:22:06.676Z,99637.83
2018-03-15T15:24:32.946Z,99632.38
2018-03-15T15:26:59.310Z,99625.77
2018-03-15T15:29:25.378Z,99623.98
2018-03-15T15:31:51.461Z,99624.66
2018-03-15T15:34:17.735Z,99625.70
2018-03-15T15:36:43.826Z,99627.48
2018-03-15T15:39:09.877Z,99630.73
2018-03-15T15:41:35.946Z,99629.28
2018-03-15T15:44:02.258Z,99624.70
2018-03-15T15:46:28.316Z,99632.91
2018-03-15T15:48:54.385Z,99626.31
2018-03-15T15:51:20.498Z,99628.81
2018-03-15T15:53:46.631Z,99623.67
2018-03-15T15:56:12.738Z,99621.66
2018-03-15T15:58:39.774Z,99622.28
2018-03-15T16:01:05.903Z,99633.42
2018-03-15T16:03:32.017Z,99616.64
2018-03-15T16:05:58.259Z,99617.43
2018-03-15T16:08:24.329Z,99612.41
2018-03-15T16:10:50.363Z,99615.20
2018-03-15T16:13:16.423Z,99615.32
2018-03-15T16:15:42.532Z,99617.49
2018-03-15T16:18:08.642Z,99618.19
2018-03-15T16:20:34.915Z,99626.63
2018-03-15T16:23:00.963Z,99624.60
2018-03-15T16:25:27.020Z,99628.66
2018-03-15T16:27:53.173Z,99630.50
2018-03-15T16:30:19.273Z,99633.83
2018-03-15T16:32:45.371Z,99629.67
2018-03-15T16:35:11.998Z,99636.80
2018-03-15T16:37:38.125Z,99638.56
2018-03-15T16:40:04.539Z,99637.77
2018-03-15T16:42:30.872Z,99634.94
2018-03-15T16:44:56.942Z,99634.11
2018-03-15T16:47:23.074Z,99629.94
2018-03-15T16:49:49.179Z,99630.08
2018-03-15T16:52:15.295Z,99633.95
2018-03-15T16:54:41.415Z,99633.39
2018-03-15T16:57:07.581Z,99636.70
2018-03-15T16:59:33.743Z,99637.09
2018-03-15T17:01:59.945Z,99622.14
2018-03-15T17:04:26.063Z,99623.08
2018-03-15T17:06:52.172Z,99625.62
2018-03-15T17:09:18.298Z,99632.75
2018-03-15T17:11:44.438Z,99626.25
2018-03-15T17:14:10.685Z,99633.11
2018-03-15T17:16:37.003Z,99638.70
2018-03-15T17:19:03.753Z,99639.45
2018-03-15T17:21:29.891Z,99642.09
2018-03-15T17:23:56.011Z,99642.73
2018-03-15T17:26:22.162Z,99646.64
2018-03-15T17:28:48.255Z,99651.47
2018-03-15T17:31:14.350Z,99661.05
2018-03-15T17:33:40.455Z,99649.44
2018-03-15T17:36:06.542Z,99664.27
2018-03-15T17:38:33.855Z,99667.35
2018-03-15T17:41:00.001Z,99671.37
2018-03-15T17:43:26.088Z,99671.83
2018-03-15T17:45:52.189Z,99677.12
2018-03-15T17:48:18.295Z,99684.85
2018-03-15T17:50:44.814Z,99682.77
2018-03-15T17:53:11.153Z,99677.49
2018-03-15T17:55:37.280Z,99688.98
2018-03-15T17:58:03.345Z,99684.45
2018-03-15T18:00:29.643Z,99696.39
2018-03-15T18:02:55.771Z,99689.27
2018-03-15T18:05:21.857Z,99692.45
2018-03-15T18:07:48.057Z,99694.28
2018-03-15T18:10:14.883Z,99699.42
2018-03-15T18:12:41.007Z,99696.31
2018-03-15T18:15:07.911Z,99701.10
2018-03-15T18:17:34.681Z,99698.77
2018-03-15T18:20:00.755Z,99694.50
2018-03-15T18:22:26.826Z,99697.66
2018-03-15T18:24:52.885Z,99706.19
2018-03-15T18:27:20.108Z,99698.10
2018-03-15T18:29:46.248Z,99716.31
2018-03-15T18:32:12.419Z,99712.34
2018-03-15T18:34:38.595Z,99706.73
2018-03-15T18:37:04.791Z,99698.48
2018-03-15T18:39:30.932Z,99708.79
2018-03-15T18:41:57.090Z,99713.26
2018-03-15T18:44:23.228Z,99700.73
2018-03-15T18:46:50.557Z,99695.59
2018-03-15T18:49:16.777Z,99687.84
2018-03-15T18:51:43.024Z,99699.69
2018-03-15T18:54:10.169Z,99693.94
2018-03-15T18:56:36.258Z,99702.97
2018-03-15T18:59:02.655Z,99704.22
2018-03-15T19:01:28.658Z,99694.83
2018-03-15T19:03:54.758Z,99703.00
2018-03-15T19:06:20.897Z,99699.64
2018-03-15T19:08:47.621Z,99705.34
2018-03-15T19:11:13.753Z,99696.87
2018-03-15T19:13:39.860Z,99702.89
2018-03-15T19:16:06.007Z,99708.67
2018-03-15T19:18:32.337Z,99712.11
2018-03-15T19:20:58.449Z,99721.13
2018-03-15T19:23:24.798Z,99710.78
2018-03-15T19:25:51.079Z,99717.66
2018-03-15T19:28:17.382Z,99719.91
2018-03-15T19:30:43.575Z,99715.56
2018-03-15T19:33:10.059Z,99719.49
2018-03-15T19:35:36.149Z,99719.98
2018-03-15T19:38:02.362Z,99718.59
2018-03-15T19:40:29.983Z,99711.17
2018-03-15T19:42:56.074Z,99717.68
2018-03-15T19:45:22.228Z,99714.34
2018-03-15T19:47:48.368Z,99716.69
2018-03-15T19:50:14.443Z,99718.14
2018-03-15T19:52:40.674Z,99718.14
2018-03-15T19:55:07.196Z,99721.20
2018-03-15T19:57:33.286Z,99711.73
2018-03-15T19:59:59.641Z,99722.55
2018-03-15T20:02:25.769Z,99723.44
2018-03-15T20:04:53.601Z,99731.23
2018-03-15T20:07:19.705Z,99728.17
2018-03-15T20:09:45.810Z,99732.13
2018-03-15T20:12:11.882Z,99736.06
2018-03-15T20:14:38.277Z,99744.60
2018-03-15T20:17:04.441Z,99733.87
2018-03-15T20:19:30.501Z,99736.91
2018-03-15T20:21:56.678Z,99739.41
2018-03-15T20:24:28.887Z,99738.59
2018-03-15T20:26:55.015Z,99733.85
2018-03-15T20:29:21.213Z,99727.31
2018-03-15T20:31:47.301Z,99731.25
2018-03-15T20:34:13.393Z,99725.29
2018-03-15T20:36:39.482Z,99721.30
2018-03-15T20:39:11.691Z,99720.94
2018-03-15T20:41:37.800Z,99706.79
2018-03-15T20:44:03.893Z,99714.16
2018-03-15T20:46:36.011Z,99720.16
2018-03-15T20:49:08.037Z,99711.98
2018-03-15T20:51:34.141Z,99717.09
2018-03-15T20:54:00.271Z,99720.58
2018-03-15T20:56:27.356Z,99719.22
2018-03-15T20:58:53.447Z,99713.63
2018-03-15T21:01:19.722Z,99720.00
2018-03-15T21:03:45.829Z,99717.94
2018-03-15T21:06:11.897Z,99718.34
2018-03-15T21:08:37.976Z,99709.84
2018-03-15T21:11:04.090Z,99712.00
2018-03-15T21:13:30.220Z,99715.36
2018-03-15T21:15:56.344Z,99705.34
2018-03-15T21:18:22.481Z,99708.36
2018-03-15T21:20:48.591Z,99706.71
2018-03-15T21:23:14.669Z,99713.61
2018-03-15T21:25:40.727Z,99697.19
2018-03-15T21:28:06.892Z,99713.66
2018-03-15T21:30:32.983Z,99705.79
2018-03-15T21:32:59.132Z,99704.11
2018-03-15T21:35:25.186Z,99708.56
2018-03-15T21:37:51.293Z,99709.50
2018-03-15T21:40:17.442Z,99710.34
2018-03-15T21:42:43.551Z,99710.78
2018-03-15T21:45:09.690Z,99709.31
2018-03-15T21:47:35.741Z,99717.58
2018-03-15T21:50:01.915Z,99713.27
2018-03-15T21:52:28.049Z,99715.95
2018-03-15T21:54:54.451Z,99712.84
2018-03-15T21:57:20.493Z,99709.09
2018-03-15T21:59:46.526Z,99714.14
2018-03-15T22:02:12.595Z,99711.59
2018-03-15T22:04:38.717Z,99716.35
2018-03-15T22:07:04.974Z,99710.42
2018-03-15T22:09:31.058Z,99709.14
2018-03-15T22:11:57.135Z,99716.77
2018-03-15T22:14:23.330Z,99711.59
2018-03-15T22:16:49.546Z,99714.21
2018-03-15T22:19:15.626Z,99712.92
2018-03-15T22:21:42.106Z,99712.37
2018-03-15T22:24:08.180Z,99716.25
2018-03-15T22:26:34.481Z,99715.49
2018-03-15T22:29:00.572Z,99712.84
2018-03-15T22:31:26.661Z,99718.56
2018-03-15T22:33:52.724Z,99717.88
2018-03-15T22:36:18.787Z,99710.59
2018-03-15T22:38:45.040Z,99706.22
2018-03-15T22:41:11.139Z,99701.09
2018-03-15T22:43:37.169Z,99703.56
2018-03-15T22:46:03.234Z,99700.88
2018-03-15T22:48:29.305Z,99706.14
2018-03-15T22:50:55.536Z,99699.25
2018-03-15T22:53:21.593Z,99695.05
2018-03-15T22:55:47.620Z,99697.25
2018-03-15T22:58:13.897Z,99700.17
2018-03-15T23:00:39.960Z,99696.11
2018-03-15T23:03:05.975Z,99694.61
2018-03-15T23:05:32.028Z,99689.44
2018-03-15T23:07:58.336Z,99695.90
2018-03-15T23:10:24.364Z,99693.97
2018-03-15T23:12:50.350Z,99697.63
2018-03-15T23:15:16.411Z,99696.69
2018-03-15T23:17:42.590Z,99688.11
2018-03-15T23:20:08.730Z,99693.78
2018-03-15T23:22:34.789Z,99684.80
2018-03-15T23:25:00.869Z,99690.09
2018-03-15T23:27:27.100Z,99687.53
2018-03-15T23:29:53.190Z,99693.09
2018-03-15T23:32:19.224Z,99692.51
2018-03-15T23:34:45.300Z,99697.34
2018-03-15T23:37:11.342Z,99697.73
2018-03-15T23:39:37.418Z,99702.51
2018-03-15T23:42:03.522Z,99700.73
2018-03-15T23:44:29.747Z,99710.16
2018-03-15T23:46:55.795Z,99710.68
2018-03-15T23:49:21.847Z,99708.05
2018-03-15T23:51:47.873Z,99705.02
2018-03-15T23:54:13.952Z,99706.77
2018-03-15T23:56:39.974Z,99713.47
2018-03-15T23:59:06.004Z,99716.53
